Secretary, Maryland
Current Conditions -  °F | °C
As of 1:39 PM on Monday 26 Jan 2015 (Local Time) from KCGE Reporting Station
Overcast Overcast  
Wind Chill: 35°   Ceiling: 700
Heat Index: 41°   Visibility: 10mi
Dew Point: 36°   Wind: 10mph
Humidity: 81%   Direction: 40°NE
Pressure: 29.67"   Gusts: 17mph
Location:  38.61°N, 75.95°W
Report Text: KCGE 261839Z AUTO 04009G15KT 10SM OVC007 05/02 A2967 RMK AO1
Loading
Personal Weather Stations






























Interactive Weather Map New forecast layout! Learn more

10-Day Weather Forecast

Advertisements
Track Severe Weather on mobile